Time;durP1;ratioP1;P1;durP2;ratioP2;P2;SDS_P1;SDS_P2;PMS_P1;PMS_P2;Temp;Humidity;BMP_temperature;BMP_pressure;BME280_temperature;BME280_humidity;BME280_pressure;Samples;Min_cycle;Max_cycle;Signal;HPM_P1;HPM_P2
2022/06/08 00:02:51;;;;;;;16.48;4.22;;;;;;;15.98;100.00;100130.28;8223951;28;20874;-62
2022/06/08 00:06:53;;;;;;;11.02;4.28;;;;;;;15.91;100.00;100130.16;8224096;28;20066;-62
2022/06/08 00:10:53;;;;;;;7.78;4.20;;;;;;;15.97;100.00;100134.03;8224003;28;20042;-62
2022/06/08 00:14:54;;;;;;;8.88;3.88;;;;;;;16.00;100.00;100123.59;8222870;28;20073;-62
2022/06/08 00:18:55;;;;;;;9.20;4.38;;;;;;;15.98;100.00;100122.13;8222707;28;20147;-62
2022/06/08 00:22:55;;;;;;;11.93;3.77;;;;;;;15.97;100.00;100114.94;8218517;28;20627;-62
2022/06/08 00:26:56;;;;;;;11.57;3.93;;;;;;;15.99;100.00;100110.16;8224571;28;20284;-62
2022/06/08 00:30:57;;;;;;;8.90;4.40;;;;;;;15.98;100.00;100109.31;8196097;28;20582;-62
2022/06/08 00:34:58;;;;;;;8.43;4.60;;;;;;;16.00;100.00;100107.25;8191626;28;20059;-62
2022/06/08 00:38:59;;;;;;;12.57;4.57;;;;;;;16.04;100.00;100110.47;8196219;28;20086;-62
2022/06/08 00:42:59;;;;;;;11.13;4.60;;;;;;;15.99;100.00;100107.44;8200455;28;20054;-63
2022/06/08 00:47:02;;;;;;;7.50;3.65;;;;;;;16.02;100.00;100098.88;8211289;28;20039;-62
2022/06/08 00:51:03;;;;;;;9.50;4.75;;;;;;;16.02;100.00;100093.44;8211256;28;20098;-62
2022/06/08 00:55:09;;;;;;;13.18;4.55;;;;;;;16.02;100.00;100090.72;8225423;28;20047;-62
2022/06/08 00:59:10;;;;;;;12.05;5.03;;;;;;;16.00;100.00;100085.44;8226213;28;20058;-62
2022/06/08 01:03:14;;;;;;;8.18;3.72;;;;;;;16.01;100.00;100075.38;8218828;28;20043;-62
2022/06/08 01:07:19;;;;;;;8.75;3.78;;;;;;;16.06;100.00;100081.09;8195127;28;20031;-62
2022/06/08 01:11:28;;;;;;;4.80;3.53;;;;;;;16.05;100.00;100076.69;8191915;28;20403;-62
2022/06/08 01:15:30;;;;;;;12.00;4.07;;;;;;;16.01;100.00;100064.47;8246852;28;20045;-62
2022/06/08 01:19:34;;;;;;;4.78;3.60;;;;;;;15.94;100.00;100069.81;8221779;28;20035;-62
2022/06/08 01:23:34;;;;;;;9.47;4.00;;;;;;;15.88;100.00;100067.84;8232939;28;20437;-62
2022/06/08 01:28:03;;;;;;;10.10;3.50;;;;;;;15.81;100.00;100064.16;8199210;28;20110;-62
2022/06/08 01:32:27;;;;;;;15.45;4.00;;;;;;;15.76;100.00;100063.03;8194511;28;20047;-62
2022/06/08 01:36:57;;;;;;;12.85;3.85;;;;;;;15.68;100.00;100062.06;8194557;28;20134;-62
2022/06/08 01:41:36;;;;;;;13.77;4.53;;;;;;;15.65;100.00;100058.88;8218719;28;20527;-62
2022/06/08 01:45:52;;;;;;;10.15;4.45;;;;;;;15.52;100.00;100048.59;8197625;28;20403;-62
2022/06/08 01:50:01;;;;;;;17.23;4.53;;;;;;;15.44;100.00;100045.91;8204609;28;20056;-62
2022/06/08 01:54:26;;;;;;;12.70;4.32;;;;;;;15.34;100.00;100037.13;8197855;28;20102;-62
2022/06/08 01:58:42;;;;;;;10.13;3.88;;;;;;;15.29;100.00;100031.41;8207259;28;20039;-62
2022/06/08 02:02:56;;;;;;;19.25;4.97;;;;;;;15.27;100.00;100019.81;8193963;28;20485;-62
2022/06/08 02:07:12;;;;;;;21.35;5.03;;;;;;;15.20;100.00;100007.97;8222994;28;20531;-62
2022/06/08 02:11:34;;;;;;;15.73;4.25;;;;;;;15.11;100.00;100011.78;8225502;28;20037;-62
2022/06/08 02:15:39;;;;;;;21.25;4.90;;;;;;;15.08;100.00;100006.72;8202989;28;20264;-61
2022/06/08 02:19:51;;;;;;;9.55;4.40;;;;;;;15.06;100.00;100000.59;8170328;28;20043;-61
2022/06/08 02:23:57;;;;;;;20.02;5.13;;;;;;;15.05;100.00;100001.63;8189575;28;20043;-61
2022/06/08 02:28:04;;;;;;;11.82;4.88;;;;;;;15.04;100.00;99994.47;8202966;28;20043;-61
2022/06/08 02:36:49;;;;;;;15.57;4.45;;;;;;;14.87;100.00;99987.47;8206627;28;20045;-61
2022/06/08 02:40:54;;;;;;;15.40;5.13;;;;;;;14.80;100.00;99975.63;8195407;28;20039;-61
2022/06/08 02:45:00;;;;;;;12.98;5.28;;;;;;;14.72;100.00;99972.94;8197690;28;20045;-61
2022/06/08 02:49:05;;;;;;;8.38;4.70;;;;;;;14.69;100.00;99983.31;8225743;28;20496;-61
2022/06/08 02:57:50;;;;;;;12.55;4.97;;;;;;;14.73;100.00;99963.72;8389452;27;20399;-61
2022/06/08 03:02:30;;;;;;;9.52;4.63;;;;;;;14.77;100.00;99969.69;8378296;28;20032;-61
2022/06/08 03:06:46;;;;;;;5.18;3.67;;;;;;;14.83;100.00;99958.06;8363169;28;20509;-62
2022/06/08 03:10:48;;;;;;;8.70;4.10;;;;;;;14.83;100.00;99964.38;8351788;28;20025;-62
2022/06/08 03:14:49;;;;;;;13.98;4.00;;;;;;;14.89;100.00;99963.66;8372767;28;20033;-62
2022/06/08 03:18:49;;;;;;;5.75;3.30;;;;;;;14.87;100.00;99957.53;8363436;28;20044;-62
2022/06/08 03:22:50;;;;;;;12.73;3.90;;;;;;;14.92;100.00;99965.16;8402192;28;20520;-62
2022/06/08 03:26:58;;;;;;;7.70;3.70;;;;;;;14.96;100.00;99967.31;8383883;28;20509;-63
2022/06/08 03:30:59;;;;;;;7.57;3.78;;;;;;;14.97;100.00;99977.16;8366618;28;20045;-63
2022/06/08 03:34:59;;;;;;;8.85;3.75;;;;;;;14.99;100.00;99969.69;8381745;28;20098;-62
2022/06/08 03:38:59;;;;;;;17.77;3.85;;;;;;;15.01;100.00;99958.59;8382725;28;20123;-62
2022/06/08 03:43:00;;;;;;;11.45;4.10;;;;;;;14.98;100.00;99965.25;8377579;28;20055;-62
2022/06/08 03:47:06;;;;;;;13.32;3.78;;;;;;;14.99;100.00;99964.25;8355136;28;20456;-62
2022/06/08 03:51:08;;;;;;;7.28;3.28;;;;;;;15.02;100.00;99963.00;8379850;28;20041;-62
2022/06/08 03:55:11;;;;;;;9.48;2.97;;;;;;;15.08;100.00;99957.69;8381137;28;20044;-62
2022/06/08 03:59:12;;;;;;;7.97;3.25;;;;;;;15.09;100.00;99958.53;8375088;28;20044;-62
2022/06/08 04:03:13;;;;;;;7.93;3.63;;;;;;;15.04;100.00;99955.53;8368201;28;20044;-62
2022/06/08 04:07:14;;;;;;;17.15;2.85;;;;;;;15.09;100.00;99963.97;8351069;28;20061;-62
2022/06/08 04:11:14;;;;;;;5.30;2.42;;;;;;;15.16;100.00;99948.63;8337824;28;20135;-62
2022/06/08 04:15:41;;;;;;;6.22;2.38;;;;;;;15.26;100.00;99954.66;8347958;28;20480;-62
2022/06/08 04:19:35;;;;;;;19.05;3.40;;;;;;;15.32;100.00;99954.75;8338734;28;20072;-62
2022/06/08 04:23:38;;;;;;;7.05;2.53;;;;;;;15.39;100.00;99954.88;8358238;28;20029;-63
2022/06/08 04:27:38;;;;;;;7.72;2.97;;;;;;;15.46;100.00;99955.81;8359978;28;20047;-63
2022/06/08 04:31:39;;;;;;;9.43;3.08;;;;;;;15.53;100.00;99952.19;8354121;28;20033;-63
2022/06/08 04:35:41;;;;;;;10.23;3.40;;;;;;;15.58;100.00;99957.06;8344448;28;20037;-63
2022/06/08 04:39:41;;;;;;;14.02;2.97;;;;;;;15.66;100.00;99946.94;8360981;28;20042;-63
2022/06/08 04:43:42;;;;;;;7.53;2.40;;;;;;;15.73;100.00;99958.78;8353685;28;20029;-63
2022/06/08 04:47:42;;;;;;;5.65;2.47;;;;;;;15.84;100.00;99941.13;8354820;28;20091;-63
2022/06/08 04:51:43;;;;;;;9.23;2.47;;;;;;;15.98;100.00;99944.88;8351690;28;20405;-63
2022/06/08 04:55:44;;;;;;;4.93;2.45;;;;;;;16.10;100.00;99937.91;8337637;28;20037;-63
2022/06/08 04:59:44;;;;;;;5.38;2.67;;;;;;;16.18;100.00;99935.91;8331094;28;20037;-63
2022/06/08 05:03:44;;;;;;;12.10;2.95;;;;;;;16.28;100.00;99935.63;8344522;28;20051;-63
2022/06/08 05:07:46;;;;;;;9.67;2.17;;;;;;;16.37;100.00;99929.00;8349600;28;20099;-63
2022/06/08 05:11:46;;;;;;;4.97;1.85;;;;;;;16.40;100.00;99912.25;8344251;28;20359;-63
2022/06/08 05:15:48;;;;;;;11.48;3.05;;;;;;;16.48;100.00;99917.63;8329082;28;20037;-63
2022/06/08 05:19:49;;;;;;;6.38;2.30;;;;;;;16.55;100.00;99910.34;8326217;28;20470;-63
2022/06/08 05:23:50;;;;;;;8.03;2.57;;;;;;;16.61;100.00;99909.56;8341309;28;20401;-63
2022/06/08 05:27:50;;;;;;;6.15;2.10;;;;;;;16.68;100.00;99905.88;8341353;28;20342;-63
2022/06/08 05:31:51;;;;;;;6.68;2.17;;;;;;;16.72;100.00;99903.63;8342082;28;20131;-63
2022/06/08 05:35:51;;;;;;;4.90;2.53;;;;;;;16.88;100.00;99892.41;8359573;28;20037;-63
2022/06/08 05:39:51;;;;;;;7.00;2.40;;;;;;;16.89;100.00;99886.75;8340420;28;20053;-63
2022/06/08 05:43:52;;;;;;;8.30;2.80;;;;;;;17.03;100.00;99882.25;8351391;28;20044;-63
2022/06/08 05:47:52;;;;;;;5.47;2.00;;;;;;;17.06;100.00;99879.16;8348237;28;20284;-63
2022/06/08 05:51:53;;;;;;;4.18;2.00;;;;;;;17.13;100.00;99877.31;8347351;28;20869;-63
2022/06/08 05:55:53;;;;;;;7.00;2.40;;;;;;;17.13;100.00;99871.84;8353906;28;20045;-63
2022/06/08 05:59:54;;;;;;;5.72;2.33;;;;;;;17.21;100.00;99868.97;8332946;28;20037;-63
2022/06/08 06:03:54;;;;;;;11.52;2.80;;;;;;;17.24;100.00;99868.56;8321011;28;20041;-63
2022/06/08 06:07:56;;;;;;;2.83;1.48;;;;;;;17.29;100.00;99871.53;8340001;28;20044;-64
2022/06/08 06:11:57;;;;;;;7.07;2.28;;;;;;;17.39;100.00;99861.13;8353329;28;20043;-63
2022/06/08 06:15:57;;;;;;;7.50;1.63;;;;;;;17.51;100.00;99865.00;8353424;28;20037;-63
2022/06/08 06:19:58;;;;;;;2.47;1.50;;;;;;;17.49;100.00;99861.63;8345765;28;20080;-63
2022/06/08 06:24:01;;;;;;;9.07;1.58;;;;;;;17.69;100.00;99859.88;8339276;28;20876;-63
2022/06/08 06:28:02;;;;;;;8.98;1.90;;;;;;;17.87;100.00;99865.59;8353691;28;20712;-63
2022/06/08 06:32:05;;;;;;;2.80;2.00;;;;;;;17.93;100.00;99864.78;8351509;28;20086;-63
2022/06/08 06:36:06;;;;;;;3.33;1.53;;;;;;;18.14;100.00;99861.94;8353417;28;20459;-63
2022/06/08 06:40:07;;;;;;;3.58;1.80;;;;;;;18.23;100.00;99860.72;8353046;28;20045;-63
2022/06/08 06:44:07;;;;;;;1.90;1.30;;;;;;;18.26;100.00;99857.56;8352864;28;20029;-63
2022/06/08 06:48:08;;;;;;;7.70;1.93;;;;;;;18.34;100.00;99857.41;8352771;28;20502;-63
2022/06/08 06:52:12;;;;;;;3.50;1.60;;;;;;;18.42;100.00;99854.47;8345135;28;20291;-63
2022/06/08 06:56:12;;;;;;;5.43;1.70;;;;;;;18.49;100.00;99847.16;8352417;28;20048;-63
2022/06/08 07:00:13;;;;;;;6.60;1.75;;;;;;;18.46;100.00;99844.81;8352499;28;20045;-63
2022/06/08 07:04:18;;;;;;;5.35;1.77;;;;;;;18.45;100.00;99843.13;8351821;28;20039;-63
2022/06/08 07:08:18;;;;;;;;;;;;;;;18.50;100.00;99854.31;8352609;28;20150;-63
2022/06/08 07:12:18;;;;;;;3.63;1.73;;;;;;;18.54;100.00;99846.53;8351569;28;19984;-63
2022/06/08 07:16:19;;;;;;;2.08;1.67;;;;;;;18.60;100.00;99846.50;8352167;28;20041;-63
2022/06/08 07:20:20;;;;;;;4.57;1.90;;;;;;;18.60;100.00;99846.50;8340710;28;20048;-63
2022/06/08 07:24:24;;;;;;;3.05;1.55;;;;;;;18.63;100.00;99837.88;8351334;28;20268;-63
2022/06/08 07:28:24;;;;;;;2.30;1.60;;;;;;;18.79;100.00;99825.69;8352958;28;20043;-63
2022/06/08 07:32:26;;;;;;;3.75;1.58;;;;;;;18.88;100.00;99832.66;8351680;28;20040;-63
2022/06/08 07:36:26;;;;;;;3.35;1.60;;;;;;;18.78;100.00;99826.72;8351566;28;20132;-63
2022/06/08 07:40:26;;;;;;;3.83;1.67;;;;;;;18.85;100.00;99822.94;8351615;28;20049;-63
2022/06/08 07:44:27;;;;;;;7.30;1.83;;;;;;;19.01;100.00;99832.66;8343876;28;20468;-63
2022/06/08 07:49:49;;;;;;;3.78;1.90;;;;;;;19.73;100.00;99827.06;8326342;28;20116;-63
2022/06/08 07:52:47;;;;;;;2.28;1.52;;;;;;;20.06;96.03;99803.09;8354378;28;20026;-63
2022/06/08 07:56:49;;;;;;;3.93;1.50;;;;;;;19.90;92.61;99812.63;8357059;28;20041;-62
2022/06/08 08:00:49;;;;;;;2.25;1.27;;;;;;;20.46;96.47;99816.38;8380268;28;20301;-62
2022/06/08 08:04:50;;;;;;;5.97;2.00;;;;;;;20.62;91.22;99806.78;8357785;28;20029;-63
2022/06/08 08:08:50;;;;;;;1.90;1.23;;;;;;;20.66;90.17;99794.25;8357360;28;20037;-63
2022/06/08 08:12:55;;;;;;;5.13;1.20;;;;;;;20.47;89.09;99796.09;8356976;28;20053;-63
2022/06/08 08:16:55;;;;;;;1.67;1.10;;;;;;;20.69;89.26;99802.91;8356012;28;20067;-63
2022/06/08 08:20:56;;;;;;;2.70;1.20;;;;;;;21.12;85.74;99803.84;8330799;28;20049;-63
2022/06/08 08:24:56;;;;;;;5.83;1.37;;;;;;;21.37;88.16;99795.53;8335581;28;20064;-63
2022/06/08 08:28:57;;;;;;;2.53;1.37;;;;;;;21.90;86.84;99791.16;8321297;28;20283;-63
2022/06/08 08:32:57;;;;;;;1.77;1.15;;;;;;;22.19;82.65;99779.31;8329966;28;20661;-63
2022/06/08 08:36:58;;;;;;;3.47;1.33;;;;;;;22.57;78.91;99788.09;8319315;28;20513;-63
2022/06/08 08:41:01;;;;;;;3.88;1.20;;;;;;;21.94;79.16;99781.34;8319024;28;20049;-63
2022/06/08 08:45:06;;;;;;;2.30;1.48;;;;;;;21.97;80.34;99769.88;8340534;28;20049;-63
2022/06/08 08:49:19;;;;;;;5.03;1.50;;;;;;;22.69;79.78;99763.34;8322768;28;20041;-63
2022/06/08 08:53:26;;;;;;;5.75;1.90;;;;;;;22.77;78.77;99755.53;8344749;28;20147;-63
2022/06/08 08:57:33;;;;;;;2.78;1.25;;;;;;;22.85;77.02;99760.72;8349542;28;20129;-63
2022/06/08 09:01:35;;;;;;;4.43;1.05;;;;;;;22.93;76.70;99760.34;8349341;28;20041;-63
2022/06/08 09:05:36;;;;;;;5.00;1.15;;;;;;;23.06;77.25;99749.06;8349958;28;20041;-63
2022/06/08 09:09:36;;;;;;;3.70;1.40;;;;;;;23.16;76.25;99743.81;8321214;28;20111;-63
2022/06/08 09:13:52;;;;;;;5.65;1.45;;;;;;;22.82;76.34;99732.78;8334549;28;20086;-62
2022/06/08 09:17:56;;;;;;;4.47;0.90;;;;;;;22.95;73.34;99740.81;8343610;28;20107;-62
2022/06/08 09:26:31;;;;;;;3.50;1.10;;;;;;;23.19;71.54;99732.31;8318788;27;20420;-62
2022/06/08 09:30:47;;;;;;;4.60;1.25;;;;;;;22.52;72.30;99718.25;8343104;28;20374;-62
2022/06/08 09:34:55;;;;;;;5.05;0.90;;;;;;;22.34;74.89;99732.91;8343393;28;20038;-62
2022/06/08 09:38:57;;;;;;;3.90;1.20;;;;;;;22.36;74.74;99730.78;8375079;28;20095;-62
2022/06/08 09:43:23;;;;;;;8.30;1.77;;;;;;;22.32;74.16;99735.03;8342187;28;20413;-62
2022/06/08 09:52:27;;;;;;;9.88;1.30;;;;;;;22.10;73.78;99724.78;8340268;28;20616;-63
2022/06/08 09:56:54;;;;;;;8.43;1.25;;;;;;;21.96;72.55;99723.31;8338053;28;20121;-63
2022/06/08 10:01:03;;;;;;;7.70;1.35;;;;;;;21.98;73.09;99738.50;8334033;28;20038;-62
2022/06/08 10:05:28;;;;;;;4.57;0.77;;;;;;;22.10;70.93;99736.66;8309027;28;20406;-62
2022/06/08 10:09:38;;;;;;;6.68;0.90;;;;;;;22.34;70.90;99729.31;8308679;28;20062;-62
2022/06/08 10:13:44;;;;;;;15.50;2.00;;;;;;;22.49;70.95;99737.97;8309199;28;20046;-62
2022/06/08 10:17:50;;;;;;;4.75;0.93;;;;;;;22.56;71.26;99742.31;8309506;28;20113;-62
2022/06/08 10:21:51;;;;;;;6.95;1.60;;;;;;;22.45;71.15;99736.78;8308474;28;20366;-62
2022/06/08 10:26:00;;;;;;;7.30;1.02;;;;;;;22.31;72.06;99738.88;8308617;28;20053;-62
2022/06/08 10:30:13;;;;;;;17.92;2.03;;;;;;;22.17;72.21;99742.06;8308782;28;20558;-62
2022/06/08 10:34:20;;;;;;;8.40;1.23;;;;;;;21.85;73.96;99744.22;8305229;28;20672;-62
2022/06/08 10:38:34;;;;;;;6.47;1.10;;;;;;;21.51;77.22;99758.59;8286692;28;20112;-62
2022/06/08 10:42:40;;;;;;;5.78;1.17;;;;;;;20.77;83.50;99764.16;8286047;28;20048;-62
2022/06/08 10:46:46;;;;;;;9.57;1.20;;;;;;;20.44;87.00;99766.34;8286412;28;20452;-62
2022/06/08 10:51:04;;;;;;;2.95;1.05;;;;;;;20.23;91.41;99774.94;8285795;28;20155;-62
2022/06/08 10:59:30;;;;;;;16.75;2.90;;;;;;;19.57;100.00;99772.69;8387413;27;20409;-62
2022/06/08 11:03:47;;;;;;;13.27;2.42;;;;;;;19.52;100.00;99777.97;8375627;28;20429;-62
2022/06/08 11:12:27;;;;;;;17.50;2.83;;;;;;;19.75;100.00;99770.06;8402763;27;21080;-63
2022/06/08 11:16:30;;;;;;;14.90;2.30;;;;;;;19.87;99.82;99763.69;8376101;28;20064;-63
2022/06/08 11:20:43;;;;;;;4.97;1.75;;;;;;;19.84;100.00;99757.78;8387411;28;20039;-63
2022/06/08 11:24:49;;;;;;;4.88;1.05;;;;;;;19.41;99.18;99758.41;8376488;28;20497;-63
2022/06/08 11:28:53;;;;;;;6.80;1.40;;;;;;;19.25;98.81;99753.34;8376492;28;20061;-63
2022/06/08 11:37:20;;;;;;;6.20;1.85;;;;;;;19.06;100.00;99747.91;8352642;27;20720;-62
2022/06/08 11:41:23;;;;;;;;;;;;;;;18.98;100.00;99745.41;8336560;27;20484;-62
2022/06/08 11:45:38;;;;;;;8.25;2.10;;;;;;;19.11;100.00;99746.22;8311033;28;19957;-62
2022/06/08 11:49:43;;;;;;;9.95;2.45;;;;;;;18.94;100.00;99727.72;8348554;28;20438;-62
2022/06/08 11:53:43;;;;;;;9.18;2.10;;;;;;;18.99;100.00;99736.97;8371205;28;20040;-62
2022/06/08 11:57:49;;;;;;;8.98;2.13;;;;;;;19.01;100.00;99734.88;8374996;28;20407;-62
2022/06/08 12:01:54;;;;;;;8.57;2.25;;;;;;;19.03;100.00;99730.00;8357708;27;20154;-62
2022/06/08 12:06:07;;;;;;;6.47;1.80;;;;;;;19.05;100.00;99725.16;8312439;28;20041;-62
2022/06/08 12:10:12;;;;;;;6.78;2.22;;;;;;;19.22;100.00;99726.34;8362582;27;20106;-62
2022/06/08 12:14:31;;;;;;;6.13;2.08;;;;;;;19.25;100.00;99714.97;8356873;27;20549;-62
2022/06/08 12:22:54;;;;;;;5.35;2.10;;;;;;;19.16;100.00;99707.22;8355583;27;20374;-61
2022/06/08 12:26:59;;;;;;;4.78;1.58;;;;;;;19.05;100.00;99708.72;8373062;28;20040;-62
2022/06/08 12:30:59;;;;;;;4.85;1.80;;;;;;;19.15;100.00;99716.47;8362297;28;20045;-62
2022/06/08 12:39:18;;;;;;;6.38;1.83;;;;;;;18.99;100.00;99709.56;8327998;28;20473;-61
2022/06/08 12:43:19;;;;;;;9.13;2.40;;;;;;;19.18;100.00;99705.94;8341155;28;20464;-61
2022/06/08 12:47:20;;;;;;;9.68;2.38;;;;;;;18.99;100.00;99703.22;8342106;28;20037;-61
2022/06/08 12:51:24;;;;;;;8.63;1.98;;;;;;;19.05;100.00;99708.72;8341362;28;20091;-62
2022/06/08 12:55:26;;;;;;;;;;;;;;;18.93;100.00;99715.03;8344468;28;20039;-62
2022/06/08 12:59:26;;;;;;;10.20;2.10;;;;;;;18.78;100.00;99704.34;8340691;28;19925;-62
2022/06/08 13:03:27;;;;;;;4.88;1.83;;;;;;;18.76;100.00;99703.69;8341988;28;20580;-62
2022/06/08 13:07:30;;;;;;;5.93;1.90;;;;;;;18.78;100.00;99707.06;8343452;28;20071;-62
2022/06/08 13:11:31;;;;;;;5.55;1.75;;;;;;;18.62;100.00;99712.16;8342746;28;20041;-62
2022/06/08 13:15:37;;;;;;;3.03;1.30;;;;;;;18.49;100.00;99707.53;8342921;28;20048;-62
2022/06/08 13:19:37;;;;;;;4.47;1.80;;;;;;;18.45;100.00;99706.25;8349052;28;20045;-62
2022/06/08 13:23:38;;;;;;;5.70;1.42;;;;;;;18.46;100.00;99712.56;8337572;28;20040;-62
2022/06/08 13:27:39;;;;;;;2.45;1.40;;;;;;;18.51;100.00;99702.66;8342406;28;20461;-62
2022/06/08 13:31:39;;;;;;;4.65;1.95;;;;;;;18.53;100.00;99711.53;8342193;28;20037;-62
2022/06/08 13:35:40;;;;;;;7.57;2.20;;;;;;;18.33;100.00;99699.69;8341822;28;20118;-62
2022/06/08 13:39:41;;;;;;;13.88;2.83;;;;;;;18.49;100.00;99706.69;8341414;28;20115;-62
2022/06/08 13:43:43;;;;;;;7.60;2.17;;;;;;;18.46;100.00;99701.63;8341656;28;20091;-62
2022/06/08 13:47:50;;;;;;;12.70;2.47;;;;;;;18.57;100.00;99701.81;8335607;28;20045;-62
2022/06/08 13:51:50;;;;;;;10.82;2.35;;;;;;;18.58;100.00;99706.28;8326066;28;20033;-62
2022/06/08 13:55:54;;;;;;;6.07;2.38;;;;;;;18.44;100.00;99688.16;8319907;28;20037;-62
2022/06/08 13:59:57;;;;;;;8.15;2.50;;;;;;;18.57;100.00;99693.59;8319104;28;20103;-62
2022/06/08 14:04:00;;;;;;;6.05;3.08;;;;;;;18.53;100.00;99692.34;8319286;28;20042;-62
2022/06/08 14:13:21;;;;;;;7.88;2.42;;;;;;;18.48;100.00;99689.41;8319475;28;20033;-62
2022/06/08 14:16:45;;;;;;;4.97;2.08;;;;;;;18.54;100.00;99680.34;8319283;28;20048;-62
2022/06/08 14:20:46;;;;;;;4.72;2.20;;;;;;;18.60;100.00;99679.50;8330003;28;20138;-62
2022/06/08 14:24:52;;;;;;;6.97;1.85;;;;;;;18.75;100.00;99674.63;8318864;28;20053;-62
2022/06/08 14:28:54;;;;;;;4.22;1.40;;;;;;;18.39;100.00;99668.78;8318667;28;20150;-62
2022/06/08 14:33:00;;;;;;;4.38;1.30;;;;;;;18.28;100.00;99676.75;8318533;28;20040;-62
2022/06/08 14:37:03;;;;;;;5.28;2.42;;;;;;;18.40;100.00;99675.94;8316268;28;20349;-62
2022/06/08 14:41:04;;;;;;;5.57;1.87;;;;;;;18.63;100.00;99668.13;8316794;28;20486;-62
2022/06/08 14:45:05;;;;;;;2.88;1.20;;;;;;;18.71;100.00;99667.91;8317640;28;20406;-62
2022/06/08 14:49:11;;;;;;;3.28;1.50;;;;;;;18.78;100.00;99667.88;8317594;28;20617;-62
2022/06/08 14:53:12;;;;;;;2.75;1.50;;;;;;;18.79;100.00;99664.09;8318224;28;20049;-62
2022/06/08 14:57:25;;;;;;;5.82;1.58;;;;;;;19.00;100.00;99672.88;8316970;28;20525;-62
2022/06/08 15:01:29;;;;;;;5.18;1.67;;;;;;;18.98;100.00;99669.53;8316137;28;20128;-62
2022/06/08 15:05:30;;;;;;;3.42;1.70;;;;;;;18.91;100.00;99679.66;8317201;28;20041;-62
2022/06/08 15:09:31;;;;;;;5.10;1.45;;;;;;;19.06;100.00;99677.50;8317036;28;20045;-62
2022/06/08 15:13:32;;;;;;;2.67;1.50;;;;;;;18.89;100.00;99679.03;8317246;28;20636;-62
2022/06/08 15:17:34;;;;;;;6.13;1.55;;;;;;;18.95;100.00;99675.44;8316946;28;20053;-62
2022/06/08 15:21:35;;;;;;;4.28;1.67;;;;;;;18.97;100.00;99673.31;8327634;28;20060;-62
2022/06/08 15:25:42;;;;;;;0.90;0.70;;;;;;;19.14;100.00;99680.03;8315910;28;20058;-62
2022/06/08 15:29:44;;;;;;;1.95;0.70;;;;;;;18.85;100.00;99675.03;8314045;28;20353;-62
2022/06/08 15:33:44;;;;;;;2.00;0.60;;;;;;;18.72;100.00;99676.94;8315349;28;20037;-62
2022/06/08 15:37:47;;;;;;;2.50;0.50;;;;;;;18.37;100.00;99681.84;8316454;28;20189;-62
2022/06/08 15:41:47;;;;;;;2.15;0.40;;;;;;;18.05;100.00;99674.41;8313332;28;20371;-62
2022/06/08 15:45:48;;;;;;;0.20;0.20;;;;;;;17.65;100.00;99686.34;8304770;28;20053;-62
2022/06/08 15:49:51;;;;;;;0.30;0.20;;;;;;;17.66;100.00;99674.38;8304362;28;20068;-62
2022/06/08 15:53:58;;;;;;;1.67;0.30;;;;;;;17.65;100.00;99674.56;8300772;28;20044;-62
2022/06/08 15:58:01;;;;;;;0.30;0.30;;;;;;;17.73;100.00;99677.09;8337512;28;20563;-62
2022/06/08 16:02:02;;;;;;;0.22;0.22;;;;;;;17.73;100.00;99683.41;8312490;28;20176;-62
2022/06/08 16:06:03;;;;;;;0.20;0.20;;;;;;;17.93;100.00;99681.56;8298151;28;20049;-62
2022/06/08 16:10:05;;;;;;;1.73;0.40;;;;;;;18.26;100.00;99685.16;8305247;28;20124;-62
2022/06/08 16:14:06;;;;;;;0.32;0.28;;;;;;;18.48;100.00;99674.91;8315574;28;20026;-62
2022/06/08 16:18:08;;;;;;;2.92;0.50;;;;;;;18.40;100.00;99677.84;8320189;28;20088;-62
2022/06/08 16:22:09;;;;;;;0.47;0.40;;;;;;;18.24;100.00;99684.53;8317127;28;20080;-62
2022/06/08 16:26:10;;;;;;;2.25;0.60;;;;;;;18.09;100.00;99683.91;8309036;28;20037;-62
2022/06/08 16:30:14;;;;;;;0.45;0.40;;;;;;;17.97;100.00;99688.31;8326650;28;20029;-62
2022/06/08 16:34:16;;;;;;;2.70;0.57;;;;;;;17.96;100.00;99700.28;8327990;28;20448;-62
2022/06/08 16:38:16;;;;;;;1.80;0.60;;;;;;;17.90;100.00;99694.81;8316550;28;20123;-62
2022/06/08 16:42:17;;;;;;;2.58;0.88;;;;;;;17.92;100.00;99699.03;8310156;28;20037;-62
2022/06/08 16:46:19;;;;;;;2.53;0.60;;;;;;;17.93;100.00;99706.16;8335983;28;20048;-62
2022/06/08 16:50:23;;;;;;;1.10;0.60;;;;;;;18.01;100.00;99708.72;8346517;28;20048;-62
2022/06/08 16:54:23;;;;;;;2.87;0.97;;;;;;;17.89;100.00;99709.53;8341718;28;20040;-62
2022/06/08 16:59:41;;;;;;;2.45;1.20;;;;;;;17.87;100.00;99707.00;8350795;28;20051;-62
2022/06/08 17:02:44;;;;;;;2.75;1.00;;;;;;;17.90;100.00;99705.75;8348444;28;20489;-63
2022/06/08 17:06:45;;;;;;;4.38;1.30;;;;;;;17.95;100.00;99708.69;8339983;28;20072;-63
2022/06/08 17:11:47;;;;;;;3.50;1.10;;;;;;;18.07;100.00;99718.84;8295639;28;20041;-63
2022/06/08 17:15:07;;;;;;;3.38;1.55;;;;;;;18.08;100.00;99709.56;8305256;28;20109;-63
2022/06/08 17:19:07;;;;;;;4.65;1.80;;;;;;;17.97;100.00;99712.94;8318672;28;20121;-63
2022/06/08 17:23:08;;;;;;;6.63;2.35;;;;;;;17.87;100.00;99717.94;8323078;28;20557;-63
2022/06/08 17:27:08;;;;;;;3.83;1.58;;;;;;;17.87;100.00;99723.41;8315476;28;20077;-63
2022/06/08 17:31:08;;;;;;;3.70;1.70;;;;;;;17.83;100.00;99716.66;8316473;28;20041;-63
2022/06/08 17:35:09;;;;;;;3.35;1.83;;;;;;;17.84;100.00;99723.00;8320384;28;20465;-63
2022/06/08 17:39:12;;;;;;;5.65;2.60;;;;;;;17.91;100.00;99727.44;8312831;28;20128;-63
2022/06/08 17:43:13;;;;;;;6.68;1.95;;;;;;;17.86;100.00;99727.19;8314236;28;20049;-63
2022/06/08 17:47:14;;;;;;;6.80;2.65;;;;;;;17.88;100.00;99730.56;8315279;28;20037;-63
2022/06/08 17:51:15;;;;;;;4.55;2.20;;;;;;;17.88;100.00;99733.31;8313150;28;20561;-63
2022/06/08 17:55:15;;;;;;;6.13;2.22;;;;;;;17.86;100.00;99737.28;8323833;28;20554;-63
2022/06/08 17:59:16;;;;;;;13.32;2.55;;;;;;;17.81;100.00;99732.44;8316767;28;20059;-63
2022/06/08 18:03:16;;;;;;;11.52;2.40;;;;;;;17.77;100.00;99743.97;8314587;28;20046;-63
2022/06/08 18:07:16;;;;;;;9.32;2.00;;;;;;;17.72;100.00;99747.38;8316939;28;21287;-63
2022/06/08 18:12:17;;;;;;;10.95;2.22;;;;;;;17.71;100.00;99734.72;8315765;28;20402;-63
2022/06/08 18:15:40;;;;;;;11.70;3.03;;;;;;;17.69;100.00;99736.84;8319597;28;20605;-63
2022/06/08 18:19:41;;;;;;;10.25;2.47;;;;;;;17.59;100.00;99742.69;8320459;28;20494;-63
2022/06/08 18:23:41;;;;;;;8.77;2.70;;;;;;;17.48;100.00;99736.97;8322973;28;20099;-63
2022/06/08 18:27:44;;;;;;;13.07;3.08;;;;;;;17.36;100.00;99744.00;8323091;28;20060;-63
2022/06/08 18:31:44;;;;;;;12.25;3.05;;;;;;;17.34;100.00;99754.28;8311032;28;20052;-63
2022/06/08 18:35:45;;;;;;;8.50;2.60;;;;;;;17.32;100.00;99759.09;8327258;28;20042;-63
2022/06/08 18:39:46;;;;;;;11.35;2.75;;;;;;;17.24;100.00;99762.03;8324164;28;20053;-63
2022/06/08 18:43:46;;;;;;;12.10;2.88;;;;;;;17.15;100.00;99760.50;8323066;28;20455;-63
2022/06/08 18:47:48;;;;;;;11.23;2.92;;;;;;;17.14;100.00;99769.75;8324053;28;20048;-63
2022/06/08 18:51:50;;;;;;;8.85;2.83;;;;;;;16.97;100.00;99768.34;8331769;28;20350;-63
2022/06/08 18:55:50;;;;;;;11.45;3.92;;;;;;;16.92;100.00;99776.28;8339379;28;20551;-63
2022/06/08 18:59:50;;;;;;;10.52;3.17;;;;;;;16.89;100.00;99777.53;8322642;28;20401;-63
2022/06/08 19:03:52;;;;;;;15.20;3.33;;;;;;;16.95;100.00;99775.91;8322003;28;20037;-63
2022/06/08 19:07:52;;;;;;;14.13;3.65;;;;;;;17.05;100.00;99770.94;8326142;28;20045;-63
2022/06/08 19:11:53;;;;;;;9.23;2.67;;;;;;;16.98;100.00;99773.63;8320486;28;20087;-63
2022/06/08 19:15:53;;;;;;;13.17;3.50;;;;;;;17.01;100.00;99775.09;8321432;28;20045;-63
2022/06/08 19:20:55;;;;;;;11.68;3.08;;;;;;;17.01;100.00;99775.94;8331702;28;20362;-63
2022/06/08 19:24:14;;;;;;;10.38;3.13;;;;;;;16.84;100.00;99790.13;8318920;28;20041;-63
2022/06/08 19:28:16;;;;;;;12.65;3.50;;;;;;;16.72;100.00;99786.25;8320699;28;20025;-63
2022/06/08 19:32:17;;;;;;;12.38;3.28;;;;;;;16.60;100.00;99798.72;8315862;28;20048;-63
2022/06/08 19:36:22;;;;;;;9.10;3.72;;;;;;;16.41;100.00;99792.00;8310919;28;20163;-63
2022/06/08 19:40:22;;;;;;;21.25;4.40;;;;;;;16.33;100.00;99796.75;8317379;28;20387;-63